createdAt,value
2019-02-28T00:01:31.532Z,50.63
2019-02-28T00:04:01.520Z,59.23
2019-02-28T00:06:31.020Z,62.67
2019-02-28T00:09:00.588Z,59.83
2019-02-28T00:11:30.263Z,67.97
2019-02-28T00:13:59.812Z,58.53
2019-02-28T00:16:29.340Z,58.20
2019-02-28T00:18:58.903Z,64.80
2019-02-28T00:21:29.247Z,56.73
2019-02-28T00:23:58.770Z,65.27
2019-02-28T00:26:28.379Z,58.80
2019-02-28T00:29:00.454Z,65.67
2019-02-28T00:31:28.996Z,57.50
2019-02-28T00:33:58.591Z,63.50
2019-02-28T00:36:28.280Z,57.17
2019-02-28T00:38:59.945Z,66.90
2019-02-28T00:41:28.971Z,60.83
2019-02-28T00:43:58.449Z,62.60
2019-02-28T00:46:27.949Z,62.23
2019-02-28T00:48:57.777Z,68.67
2019-02-28T00:51:29.783Z,65.60
2019-02-28T00:53:58.483Z,58.43
2019-02-28T00:56:27.990Z,57.57
2019-02-28T00:59:00.501Z,60.23
2019-02-28T01:01:28.708Z,54.83
2019-02-28T01:03:59.002Z,64.97
2019-02-28T01:06:29.023Z,58.97
2019-02-28T01:08:58.589Z,65.43
2019-02-28T01:11:28.444Z,58.40
2019-02-28T01:13:58.086Z,61.17
2019-02-28T01:16:29.151Z,61.00
2019-02-28T01:18:58.664Z,64.67
2019-02-28T01:21:28.175Z,64.13
2019-02-28T01:24:00.696Z,62.33
2019-02-28T01:26:30.540Z,62.70
2019-02-28T01:29:01.771Z,58.67
2019-02-28T01:31:31.691Z,72.27
2019-02-28T01:34:01.152Z,68.83
2019-02-28T01:36:30.685Z,65.33
2019-02-28T01:39:00.178Z,69.43
2019-02-28T01:41:29.769Z,59.37
2019-02-28T01:44:01.685Z,64.87
2019-02-28T01:46:31.181Z,61.30
2019-02-28T01:49:00.720Z,61.40
2019-02-28T01:51:35.647Z,69.00
2019-02-28T01:54:02.161Z,65.70
2019-02-28T01:56:34.263Z,63.40
2019-02-28T01:59:02.844Z,68.53
2019-02-28T02:01:32.338Z,63.03
2019-02-28T02:04:01.870Z,68.00
2019-02-28T02:06:31.442Z,67.80
2019-02-28T02:09:00.933Z,70.43
2019-02-28T02:11:30.543Z,70.30
2019-02-28T02:14:00.068Z,73.57
2019-02-28T02:16:29.945Z,65.57
2019-02-28T02:18:59.856Z,70.27
2019-02-28T02:21:31.465Z,74.57
2019-02-28T02:24:00.912Z,77.37
2019-02-28T02:26:30.914Z,79.90
2019-02-28T02:29:01.214Z,71.17
2019-02-28T02:31:31.343Z,80.00
2019-02-28T02:34:01.210Z,74.40
2019-02-28T02:36:31.125Z,70.70
2019-02-28T02:39:00.649Z,74.77
2019-02-28T02:41:33.503Z,76.13
2019-02-28T02:44:01.558Z,70.83
2019-02-28T02:46:31.080Z,74.87
2019-02-28T02:49:00.624Z,79.10
2019-02-28T02:51:30.167Z,78.23
2019-02-28T02:53:59.669Z,78.93
2019-02-28T02:56:29.233Z,86.17
2019-02-28T02:59:01.138Z,74.97
2019-02-28T03:01:30.217Z,88.20
2019-02-28T03:03:59.687Z,97.30
2019-02-28T03:06:29.235Z,75.13
2019-02-28T03:08:59.223Z,87.90
2019-02-28T03:11:28.741Z,81.63
2019-02-28T03:13:58.211Z,76.80
2019-02-28T03:16:28.112Z,86.30
2019-02-28T03:18:58.434Z,85.53
2019-02-28T03:21:28.108Z,82.90
2019-02-28T03:23:57.991Z,90.40
2019-02-28T03:26:27.574Z,87.33
2019-02-28T03:28:57.062Z,90.20
2019-02-28T03:31:26.689Z,84.50
2019-02-28T03:33:56.208Z,90.60
2019-02-28T03:36:25.697Z,83.10
2019-02-28T03:38:55.172Z,90.40
2019-02-28T03:41:24.769Z,84.30
2019-02-28T03:43:54.318Z,85.60
2019-02-28T03:46:23.845Z,81.27
2019-02-28T03:48:53.365Z,87.10
2019-02-28T03:51:22.882Z,82.47
2019-02-28T03:53:55.679Z,85.03
2019-02-28T03:56:23.606Z,82.17
2019-02-28T03:58:53.117Z,89.37
2019-02-28T04:01:22.900Z,80.23
2019-02-28T04:03:52.408Z,86.20
2019-02-28T04:06:22.116Z,80.73
2019-02-28T04:08:52.083Z,87.17
2019-02-28T04:11:21.590Z,82.43
2019-02-28T04:13:52.451Z,90.40
2019-02-28T04:16:22.279Z,88.70
2019-02-28T04:18:51.835Z,85.47
2019-02-28T04:21:21.322Z,86.83
2019-02-28T04:23:50.969Z,88.07
2019-02-28T04:26:20.488Z,86.77
2019-02-28T04:28:53.250Z,80.93
2019-02-28T04:31:21.239Z,95.17
2019-02-28T04:33:51.122Z,89.57
2019-02-28T04:36:20.631Z,87.20
2019-02-28T04:38:51.748Z,89.53
2019-02-28T04:41:22.000Z,96.90
2019-02-28T04:43:54.121Z,91.40
2019-02-28T04:46:24.748Z,100.37
2019-02-28T04:48:54.612Z,100.83
2019-02-28T04:51:24.131Z,88.50
2019-02-28T04:53:53.829Z,95.63
2019-02-28T04:56:23.584Z,87.20
2019-02-28T04:58:53.216Z,92.77
2019-02-28T05:01:22.887Z,81.60
2019-02-28T05:03:53.222Z,89.27
2019-02-28T05:06:22.799Z,95.60
2019-02-28T05:08:52.323Z,89.63
2019-02-28T05:11:21.867Z,98.93
2019-02-28T05:13:51.734Z,96.30
2019-02-28T05:16:21.524Z,99.40
2019-02-28T05:18:51.089Z,90.10
2019-02-28T05:21:21.893Z,92.37
2019-02-28T05:23:52.167Z,85.97
2019-02-28T05:26:23.534Z,82.23
2019-02-28T05:28:53.370Z,89.43
2019-02-28T05:31:24.151Z,91.03
2019-02-28T05:33:54.557Z,91.73
2019-02-28T05:36:24.058Z,90.53
2019-02-28T05:38:56.592Z,102.27
2019-02-28T05:41:25.146Z,93.67
2019-02-28T05:43:55.008Z,93.73
2019-02-28T05:46:24.610Z,95.23
2019-02-28T05:48:54.186Z,101.50
2019-02-28T05:51:24.934Z,101.23
2019-02-28T05:53:54.880Z,102.23
2019-02-28T05:56:24.361Z,93.77
2019-02-28T05:58:54.406Z,102.47
2019-02-28T06:01:23.907Z,106.70
2019-02-28T06:03:53.405Z,106.67
2019-02-28T06:06:22.968Z,95.43
2019-02-28T06:08:52.980Z,105.00
2019-02-28T06:11:22.468Z,111.60
2019-02-28T06:13:52.819Z,101.57
2019-02-28T06:16:23.060Z,114.27
2019-02-28T06:18:53.023Z,98.77
2019-02-28T06:21:23.470Z,108.67
2019-02-28T06:23:53.627Z,99.97
2019-02-28T06:26:23.192Z,110.67
2019-02-28T06:28:52.773Z,110.80
2019-02-28T06:31:22.700Z,125.07
2019-02-28T06:33:52.193Z,117.93
2019-02-28T06:36:21.760Z,116.10
2019-02-28T06:38:55.882Z,123.10
2019-02-28T06:41:25.830Z,104.63
2019-02-28T06:43:55.964Z,106.53
2019-02-28T06:46:25.500Z,118.03
2019-02-28T06:49:00.852Z,117.23
2019-02-28T06:51:26.229Z,110.90
2019-02-28T06:53:55.712Z,104.30
2019-02-28T06:56:26.114Z,110.37
2019-02-28T06:58:55.733Z,101.93
2019-02-28T07:01:25.204Z,114.80
2019-02-28T07:03:54.736Z,132.03
2019-02-28T07:06:24.281Z,122.37
2019-02-28T07:08:53.799Z,114.60
2019-02-28T07:11:23.336Z,111.40
2019-02-28T07:13:52.893Z,118.17
2019-02-28T07:16:22.409Z,123.43
2019-02-28T07:18:53.790Z,113.70
2019-02-28T07:21:23.597Z,132.07
2019-02-28T07:23:53.339Z,125.83
2019-02-28T07:26:22.960Z,115.90
2019-02-28T07:28:52.432Z,108.23
2019-02-28T07:31:24.669Z,120.00
2019-02-28T07:33:53.594Z,112.83
2019-02-28T07:36:23.466Z,116.53
2019-02-28T07:38:52.951Z,127.20
2019-02-28T07:41:26.350Z,124.13
2019-02-28T07:43:54.353Z,112.87
2019-02-28T07:46:24.767Z,110.63
2019-02-28T07:48:54.381Z,126.10
2019-02-28T07:51:26.106Z,114.50
2019-02-28T07:53:55.246Z,122.37
2019-02-28T07:56:24.785Z,110.63
2019-02-28T07:58:54.304Z,107.70
2019-02-28T08:01:24.542Z,105.47
2019-02-28T08:03:54.932Z,114.70
2019-02-28T08:06:25.107Z,108.97
2019-02-28T08:08:54.646Z,107.77
2019-02-28T08:11:24.171Z,108.23
2019-02-28T08:13:55.497Z,105.07
2019-02-28T08:16:24.952Z,98.17
2019-02-28T08:18:54.509Z,98.80
2019-02-28T08:21:24.050Z,101.73
2019-02-28T08:23:53.568Z,98.30
2019-02-28T08:26:23.180Z,98.13
2019-02-28T08:28:52.688Z,92.93
2019-02-28T08:31:22.594Z,101.40
2019-02-28T08:33:52.113Z,94.73
2019-02-28T08:36:21.867Z,91.03
2019-02-28T08:38:51.381Z,87.10
2019-02-28T08:41:22.576Z,95.13
2019-02-28T08:43:52.071Z,90.90
2019-02-28T08:46:21.592Z,90.03
2019-02-28T08:48:51.108Z,97.77
2019-02-28T08:51:21.478Z,86.73
2019-02-28T08:53:52.225Z,90.67
2019-02-28T08:56:21.760Z,86.27
2019-02-28T08:58:51.256Z,85.13
2019-02-28T09:01:20.808Z,84.67
2019-02-28T09:03:50.416Z,87.07
2019-02-28T09:06:19.942Z,87.03
2019-02-28T09:08:49.443Z,83.10
2019-02-28T09:11:20.995Z,90.40
2019-02-28T09:13:50.145Z,80.27
2019-02-28T09:16:19.733Z,93.10
2019-02-28T09:18:49.551Z,89.37
2019-02-28T09:21:19.154Z,94.70
2019-02-28T09:23:48.677Z,93.50
2019-02-28T09:26:18.585Z,79.37
2019-02-28T09:28:48.289Z,87.93
2019-02-28T09:31:17.880Z,91.50
2019-02-28T09:33:48.161Z,97.07
2019-02-28T09:36:20.682Z,95.87
2019-02-28T09:38:56.810Z,97.50
2019-02-28T09:41:21.172Z,90.10
2019-02-28T09:43:50.720Z,83.17
2019-02-28T09:46:20.210Z,89.77
2019-02-28T09:48:50.351Z,93.23
2019-02-28T09:51:19.889Z,96.60
2019-02-28T09:53:50.286Z,86.30
2019-02-28T09:56:20.553Z,87.90
2019-02-28T09:58:50.062Z,85.63
2019-02-28T10:01:21.216Z,99.40
2019-02-28T10:03:52.166Z,96.43
2019-02-28T10:06:22.108Z,94.10
2019-02-28T10:08:51.637Z,89.47
2019-02-28T10:11:21.812Z,87.43
2019-02-28T10:13:53.186Z,84.47
2019-02-28T10:16:22.788Z,86.37
2019-02-28T10:18:52.749Z,88.20
2019-02-28T10:21:22.280Z,95.10
2019-02-28T10:23:53.363Z,97.83
2019-02-28T10:26:23.084Z,92.20
2019-02-28T10:28:52.608Z,86.23
2019-02-28T10:31:35.219Z,88.10
2019-02-28T10:33:54.113Z,91.80
2019-02-28T10:36:23.650Z,91.70
2019-02-28T10:38:53.524Z,99.03
2019-02-28T10:41:24.204Z,86.20
2019-02-28T10:43:55.904Z,93.67
2019-02-28T10:46:25.689Z,87.43
2019-02-28T10:48:55.207Z,103.63
2019-02-28T10:51:24.734Z,98.10
2019-02-28T10:53:54.817Z,95.40
2019-02-28T10:56:24.338Z,101.37
2019-02-28T10:58:54.484Z,100.90
2019-02-28T11:01:24.740Z,106.40
2019-02-28T11:03:54.833Z,99.63
2019-02-28T11:06:25.292Z,95.93
2019-02-28T11:08:55.535Z,92.43
2019-02-28T11:11:25.417Z,97.67
2019-02-28T11:13:55.020Z,98.60
2019-02-28T11:16:24.966Z,96.93
2019-02-28T11:18:54.510Z,100.10
2019-02-28T11:21:24.137Z,95.90
2019-02-28T11:23:53.636Z,93.40
2019-02-28T11:26:24.046Z,99.57
2019-02-28T11:28:53.790Z,97.83
2019-02-28T11:31:23.558Z,102.80
2019-02-28T11:33:53.552Z,97.63
2019-02-28T11:36:23.568Z,100.97
2019-02-28T11:38:55.424Z,96.80
2019-02-28T11:41:24.256Z,91.93
2019-02-28T11:43:53.807Z,99.00
2019-02-28T11:46:24.846Z,93.03
2019-02-28T11:48:55.118Z,96.37
2019-02-28T11:51:24.736Z,83.27
2019-02-28T11:53:54.264Z,91.47
2019-02-28T11:56:25.539Z,86.43
2019-02-28T11:58:55.531Z,91.20
2019-02-28T12:01:25.043Z,89.63
2019-02-28T12:03:54.565Z,94.70
2019-02-28T12:06:25.548Z,89.27
2019-02-28T12:08:55.673Z,95.17
2019-02-28T12:11:25.219Z,95.33
2019-02-28T12:13:56.095Z,87.23
2019-02-28T12:16:25.620Z,81.53
2019-02-28T12:18:55.104Z,87.37
2019-02-28T12:21:25.092Z,97.27
2019-02-28T12:23:57.303Z,81.30
2019-02-28T12:26:25.773Z,81.00
2019-02-28T12:28:55.321Z,75.77
2019-02-28T12:31:25.208Z,87.20
2019-02-28T12:33:56.789Z,79.60
2019-02-28T12:36:27.615Z,82.60
2019-02-28T12:38:59.383Z,76.43
2019-02-28T12:41:28.321Z,83.33
2019-02-28T12:43:57.851Z,71.50
2019-02-28T12:46:27.560Z,73.23
2019-02-28T12:48:57.186Z,72.20
2019-02-28T12:51:26.716Z,77.63
2019-02-28T12:53:59.159Z,83.30
2019-02-28T12:56:27.749Z,80.63
2019-02-28T12:58:57.325Z,77.27
2019-02-28T13:01:26.836Z,76.50
2019-02-28T13:04:00.594Z,77.83
2019-02-28T13:06:27.912Z,88.17
2019-02-28T13:08:57.882Z,85.90
2019-02-28T13:11:27.418Z,87.50
2019-02-28T13:13:59.890Z,83.00
2019-02-28T13:16:28.009Z,90.47
2019-02-28T13:18:57.568Z,82.80
2019-02-28T13:21:27.026Z,92.57
2019-02-28T13:23:56.564Z,82.60
2019-02-28T13:26:26.018Z,83.70
2019-02-28T13:28:57.454Z,91.73
2019-02-28T13:31:27.069Z,90.20
2019-02-28T13:33:56.624Z,88.37
2019-02-28T13:36:26.022Z,85.03
2019-02-28T13:38:55.887Z,87.60
2019-02-28T13:41:26.551Z,86.10
2019-02-28T13:43:59.425Z,84.40
2019-02-28T13:46:32.484Z,83.00
2019-02-28T13:48:59.432Z,87.20
2019-02-28T13:51:28.912Z,84.90
2019-02-28T13:53:58.353Z,92.50
2019-02-28T13:56:29.055Z,91.40
2019-02-28T13:58:59.323Z,90.37
2019-02-28T14:01:28.804Z,91.93
2019-02-28T14:03:58.307Z,97.53
2019-02-28T14:06:27.852Z,92.27
2019-02-28T14:08:57.727Z,86.10
2019-02-28T14:11:27.275Z,90.80
2019-02-28T14:13:56.927Z,87.63
2019-02-28T14:16:27.564Z,92.00
2019-02-28T14:18:57.228Z,91.00
2019-02-28T14:21:26.655Z,85.83
2019-02-28T14:23:56.776Z,97.00
2019-02-28T14:26:26.426Z,93.53
2019-02-28T14:28:55.895Z,93.67
2019-02-28T14:31:25.856Z,85.77
2019-02-28T14:33:55.328Z,96.50
2019-02-28T14:36:24.759Z,90.77
2019-02-28T14:38:54.271Z,93.53
2019-02-28T14:41:24.683Z,87.80
2019-02-28T14:43:56.917Z,90.20
2019-02-28T14:46:26.901Z,95.13
2019-02-28T14:48:57.103Z,96.90
2019-02-28T14:51:28.589Z,101.90
2019-02-28T14:53:58.142Z,94.00
2019-02-28T14:56:27.562Z,98.73
2019-02-28T14:58:57.606Z,97.43
2019-02-28T15:01:27.215Z,93.73
2019-02-28T15:03:57.494Z,89.13
2019-02-28T15:06:29.776Z,85.90
2019-02-28T15:08:58.358Z,81.43
2019-02-28T15:11:27.769Z,75.20
2019-02-28T15:13:57.319Z,75.83
2019-02-28T15:16:29.595Z,81.07
2019-02-28T15:18:57.966Z,81.00
2019-02-28T15:21:27.886Z,86.03
2019-02-28T15:23:57.285Z,85.17
2019-02-28T15:26:29.880Z,84.83
2019-02-28T15:28:57.870Z,91.03
2019-02-28T15:31:27.359Z,83.63
2019-02-28T15:33:56.818Z,88.13
2019-02-28T15:36:26.636Z,90.40
2019-02-28T15:38:56.523Z,87.20
2019-02-28T15:41:25.974Z,96.77
2019-02-28T15:43:55.489Z,93.17
2019-02-28T15:46:24.930Z,100.43
2019-02-28T15:48:54.739Z,89.40
2019-02-28T15:51:25.770Z,97.63
2019-02-28T15:53:55.917Z,90.27
2019-02-28T15:56:25.400Z,96.20
2019-02-28T15:58:54.874Z,96.47
2019-02-28T16:01:24.735Z,103.97
2019-02-28T16:03:54.204Z,99.70
2019-02-28T16:06:24.060Z,96.43
2019-02-28T16:08:53.467Z,94.30
2019-02-28T16:11:22.946Z,83.90
2019-02-28T16:13:52.535Z,86.37
2019-02-28T16:16:24.717Z,73.17
2019-02-28T16:18:53.131Z,71.87
2019-02-28T16:21:22.577Z,69.43
2019-02-28T16:23:52.027Z,63.73
2019-02-28T16:26:22.689Z,64.93
2019-02-28T16:28:52.353Z,59.53
2019-02-28T16:31:22.153Z,56.50
2019-02-28T16:33:51.984Z,49.90
2019-02-28T16:36:22.131Z,49.53
2019-02-28T16:38:52.670Z,53.00
2019-02-28T16:41:22.149Z,51.57
2019-02-28T16:43:52.306Z,49.00
2019-02-28T16:46:23.858Z,48.53
2019-02-28T16:48:53.750Z,51.50
2019-02-28T16:51:26.357Z,49.00
2019-02-28T16:53:55.078Z,46.43
2019-02-28T16:56:25.127Z,48.40
2019-02-28T16:58:57.316Z,52.43
2019-02-28T17:01:26.181Z,45.90
2019-02-28T17:03:56.559Z,48.90
2019-02-28T17:06:26.038Z,44.70
2019-02-28T17:09:04.135Z,43.23
2019-02-28T17:11:36.274Z,40.00
2019-02-28T17:14:13.798Z,46.90
2019-02-28T17:16:57.551Z,46.20
2019-02-28T17:19:28.635Z,50.23
2019-02-28T17:21:58.242Z,49.13
2019-02-28T17:24:27.690Z,41.97
2019-02-28T17:27:14.965Z,41.37
2019-02-28T17:30:00.385Z,43.17
2019-02-28T17:32:31.220Z,45.73
2019-02-28T17:35:00.773Z,47.20
2019-02-28T17:37:30.218Z,41.70
2019-02-28T17:39:59.761Z,39.73
2019-02-28T17:42:29.108Z,45.03
2019-02-28T17:45:10.566Z,40.03
2019-02-28T17:48:23.841Z,38.67
2019-02-28T17:51:22.295Z,49.40
2019-02-28T17:54:44.835Z,40.90
2019-02-28T17:57:38.992Z,40.10
2019-02-28T18:00:58.324Z,41.80
2019-02-28T18:03:56.900Z,39.00
2019-02-28T18:06:43.729Z,38.67
2019-02-28T18:09:48.217Z,39.30
2019-02-28T18:12:56.582Z,41.03
2019-02-28T18:15:34.304Z,34.87
2019-02-28T18:18:30.399Z,38.50
2019-02-28T18:21:49.786Z,39.70
2019-02-28T18:25:01.723Z,44.97
2019-02-28T18:27:59.124Z,42.80
2019-02-28T18:31:05.474Z,36.83
2019-02-28T18:33:35.614Z,38.90
2019-02-28T18:36:09.112Z,34.83
2019-02-28T18:38:38.698Z,35.13
2019-02-28T18:41:08.588Z,39.60
2019-02-28T18:43:40.362Z,37.73
2019-02-28T18:46:09.559Z,39.83
2019-02-28T18:48:39.373Z,44.10
2019-02-28T18:51:09.179Z,48.37
2019-02-28T18:53:39.050Z,48.70
2019-02-28T18:56:08.514Z,51.00
2019-02-28T18:58:38.402Z,47.73
2019-02-28T19:01:08.178Z,51.23
2019-02-28T19:03:37.643Z,44.47
2019-02-28T19:06:08.079Z,51.27
2019-02-28T19:08:37.516Z,44.33
2019-02-28T19:11:06.975Z,41.73
2019-02-28T19:13:36.476Z,39.03
2019-02-28T19:16:06.594Z,40.00
2019-02-28T19:18:36.065Z,33.03
2019-02-28T19:21:05.508Z,32.00
2019-02-28T19:23:35.347Z,38.70
2019-02-28T19:26:04.838Z,33.97
2019-02-28T19:28:34.675Z,34.17
2019-02-28T19:31:04.199Z,23.93
2019-02-28T19:33:33.995Z,28.53
2019-02-28T19:36:03.488Z,22.73
2019-02-28T19:38:33.286Z,21.23
2019-02-28T19:41:02.830Z,19.03
2019-02-28T19:43:32.557Z,22.90
2019-02-28T19:46:02.014Z,24.77
2019-02-28T19:48:33.076Z,19.50
2019-02-28T19:51:02.512Z,22.93
2019-02-28T19:53:31.995Z,20.20
2019-02-28T19:56:01.575Z,20.20
2019-02-28T19:58:31.064Z,15.27
2019-02-28T20:01:00.578Z,15.77
2019-02-28T20:03:30.204Z,15.50
2019-02-28T20:05:59.646Z,16.57
2019-02-28T20:08:29.124Z,17.20
2019-02-28T20:10:58.980Z,15.67
2019-02-28T20:13:28.441Z,15.60
2019-02-28T20:15:58.236Z,18.63
2019-02-28T20:18:27.717Z,16.87
2019-02-28T20:20:57.183Z,14.30
2019-02-28T20:23:26.678Z,14.57
2019-02-28T20:25:56.116Z,20.00
2019-02-28T20:28:25.590Z,17.00
2019-02-28T20:30:55.107Z,13.93
2019-02-28T20:33:24.573Z,17.10
2019-02-28T20:35:54.127Z,19.73
2019-02-28T20:38:23.643Z,17.13
2019-02-28T20:40:53.165Z,17.70
2019-02-28T20:43:22.654Z,16.40
2019-02-28T20:45:52.460Z,15.77
2019-02-28T20:48:22.423Z,16.97
2019-02-28T20:50:51.963Z,18.60
2019-02-28T20:53:21.474Z,20.57
2019-02-28T20:55:50.912Z,21.97
2019-02-28T20:58:20.371Z,23.27
2019-02-28T21:00:49.978Z,24.23
2019-02-28T21:03:19.464Z,22.90
2019-02-28T21:05:48.901Z,25.17
2019-02-28T21:08:18.412Z,28.70
2019-02-28T21:10:47.834Z,28.63
2019-02-28T21:13:17.377Z,26.93
2019-02-28T21:15:46.794Z,28.53
2019-02-28T21:18:16.366Z,30.97
2019-02-28T21:20:45.960Z,24.53
2019-02-28T21:23:15.401Z,29.20
2019-02-28T21:25:44.823Z,34.27
2019-02-28T21:28:14.770Z,32.13
2019-02-28T21:30:44.261Z,32.13
2019-02-28T21:33:13.701Z,31.30
2019-02-28T21:35:43.198Z,31.30
2019-02-28T21:38:13.024Z,30.93
2019-02-28T21:40:42.791Z,30.57
2019-02-28T21:43:12.323Z,33.17
2019-02-28T21:45:41.806Z,37.23
2019-02-28T21:48:11.397Z,28.93
2019-02-28T21:50:40.842Z,28.00
2019-02-28T21:53:10.298Z,24.13
2019-02-28T21:55:39.782Z,23.63
2019-02-28T21:58:09.637Z,22.93
2019-02-28T22:00:39.434Z,22.13
2019-02-28T22:03:08.920Z,23.40
2019-02-28T22:05:38.385Z,20.47
2019-02-28T22:08:07.917Z,26.70
2019-02-28T22:10:37.345Z,21.60
2019-02-28T22:13:06.834Z,21.13
2019-02-28T22:15:36.365Z,18.83
2019-02-28T22:18:06.194Z,17.10
2019-02-28T22:20:36.826Z,16.40
2019-02-28T22:23:06.392Z,20.67
2019-02-28T22:25:36.206Z,21.10
2019-02-28T22:28:05.678Z,20.83
2019-02-28T22:30:54.003Z,20.47
2019-02-28T22:33:38.958Z,19.23
2019-02-28T22:36:09.791Z,20.53
2019-02-28T22:38:39.415Z,20.23
2019-02-28T22:41:08.860Z,21.17
2019-02-28T22:43:38.611Z,22.93
2019-02-28T22:46:08.530Z,24.50
2019-02-28T22:48:38.330Z,20.80
2019-02-28T22:51:07.846Z,23.10
2019-02-28T22:53:37.286Z,26.27
2019-02-28T22:56:07.080Z,19.83
2019-02-28T22:58:36.574Z,22.00
2019-02-28T23:01:12.370Z,22.63
2019-02-28T23:03:42.147Z,23.80
2019-02-28T23:06:11.578Z,22.60
2019-02-28T23:08:41.035Z,26.77
2019-02-28T23:11:10.813Z,19.90
2019-02-28T23:13:40.262Z,27.73
2019-02-28T23:16:09.754Z,26.23
2019-02-28T23:18:39.156Z,25.33
2019-02-28T23:21:08.683Z,22.70
2019-02-28T23:23:38.615Z,26.10
2019-02-28T23:26:10.121Z,20.73
2019-02-28T23:28:42.219Z,22.83
2019-02-28T23:31:55.052Z,23.43
2019-02-28T23:34:34.602Z,31.07
2019-02-28T23:37:04.024Z,29.73
2019-02-28T23:39:33.578Z,27.73
2019-02-28T23:42:02.997Z,24.57
2019-02-28T23:44:32.883Z,25.13
2019-02-28T23:47:02.393Z,26.50
2019-02-28T23:49:31.905Z,29.33
2019-02-28T23:52:01.317Z,26.67
2019-02-28T23:54:31.077Z,31.70
2019-02-28T23:57:00.573Z,27.33
2019-02-28T23:59:30.034Z,30.67
